Time;durP1;ratioP1;P1;durP2;ratioP2;P2;SDS_P1;SDS_P2;PMS_P1;PMS_P2;Temp;Humidity;BMP_temperature;BMP_pressure;BME280_temperature;BME280_humidity;BME280_pressure;Samples;Min_cycle;Max_cycle;Signal;HPM_P1;HPM_P2
2023/01/02 05:02:20;;;;;;;6.43;4.20;;;8.90;99.90;;;;;;5163087;23;20510;-72
2023/01/02 05:04:46;;;;;;;6.13;3.93;;;8.90;99.90;;;;;;4988060;28;20452;-72
2023/01/02 05:07:13;;;;;;;13.63;5.40;;;8.90;99.90;;;;;;4986921;28;20452;-72
2023/01/02 05:09:40;;;;;;;9.83;4.53;;;8.80;99.90;;;;;;4986953;28;20460;-72
2023/01/02 05:12:07;;;;;;;6.70;3.93;;;8.80;99.90;;;;;;4987695;28;20484;-72
2023/01/02 05:14:33;;;;;;;8.80;5.43;;;8.80;99.90;;;;;;4987814;28;20868;-72
2023/01/02 05:17:00;;;;;;;11.07;5.20;;;8.80;99.90;;;;;;4986837;28;20470;-72
2023/01/02 05:19:28;;;;;;;11.10;5.70;;;8.80;99.90;;;;;;4987466;28;20467;-72
2023/01/02 05:24:39;;;;;;;15.23;7.60;;;8.80;99.90;;;;;;4987333;28;20448;-73
2023/01/02 05:27:06;;;;;;;12.27;6.97;;;8.70;99.90;;;;;;4986586;28;20462;-73
2023/01/02 05:29:33;;;;;;;10.60;7.10;;;8.70;99.90;;;;;;4987178;28;20447;-72
2023/01/02 05:31:59;;;;;;;17.00;7.57;;;8.80;99.90;;;;;;4986723;28;20483;-72
2023/01/02 05:34:27;;;;;;;12.73;7.20;;;8.70;99.90;;;;;;4986627;28;20456;-72
2023/01/02 05:36:54;;;;;;;13.37;7.40;;;8.70;99.90;;;;;;4986273;28;20456;-72
2023/01/02 05:39:21;;;;;;;12.23;7.53;;;8.70;99.90;;;;;;4986859;28;20978;-73
2023/01/02 05:41:48;;;;;;;11.07;7.40;;;8.70;99.90;;;;;;4986601;28;21031;-73
2023/01/02 05:44:14;;;;;;;12.10;7.50;;;8.70;99.90;;;;;;4986715;28;20463;-74
2023/01/02 05:46:41;;;;;;;14.33;8.07;;;8.70;99.90;;;;;;4986500;28;20450;-71
2023/01/02 05:49:09;;;;;;;12.87;6.50;;;8.70;99.90;;;;;;4986431;28;20456;-72
2023/01/02 05:51:37;;;;;;;8.03;5.97;;;8.70;99.90;;;;;;4986961;28;20536;-72
2023/01/02 05:54:04;;;;;;;11.13;5.20;;;8.70;99.90;;;;;;4986395;28;20839;-72
2023/01/02 05:56:31;;;;;;;11.90;5.87;;;8.70;99.90;;;;;;4986309;28;20869;-72
2023/01/02 05:58:58;;;;;;;7.23;5.13;;;8.70;99.90;;;;;;4986816;28;20971;-71
2023/01/02 06:01:28;;;;;;;8.90;5.67;;;8.70;99.90;;;;;;4986175;28;20483;-70
2023/01/02 06:03:57;;;;;;;11.70;5.17;;;8.70;99.90;;;;;;4986460;28;20458;-73
2023/01/02 06:06:25;;;;;;;11.13;6.20;;;8.70;99.90;;;;;;4986015;28;20458;-70
2023/01/02 06:08:53;;;;;;;8.90;5.20;;;8.70;99.90;;;;;;4986301;28;20448;-75
2023/01/02 06:11:20;;;;;;;10.27;5.07;;;8.60;99.90;;;;;;4986544;28;20483;-74
2023/01/02 06:13:47;;;;;;;9.10;5.40;;;8.70;99.90;;;;;;4986719;28;20475;-70
2023/01/02 06:16:14;;;;;;;9.10;5.50;;;8.60;99.90;;;;;;4985509;28;20506;-70
2023/01/02 06:18:41;;;;;;;7.20;5.10;;;8.60;99.90;;;;;;4986339;28;20746;-75
2023/01/02 06:21:09;;;;;;;11.17;5.20;;;8.60;99.90;;;;;;4986053;28;20475;-70
2023/01/02 06:23:36;;;;;;;9.20;4.80;;;8.70;99.90;;;;;;4986470;28;20458;-70
2023/01/02 06:26:05;;;;;;;6.93;5.10;;;8.70;99.90;;;;;;4985083;28;20966;-70
2023/01/02 06:28:32;;;;;;;6.87;4.37;;;8.70;99.90;;;;;;4986168;28;20458;-71
2023/01/02 06:31:00;;;;;;;6.83;4.33;;;8.70;99.90;;;;;;4986693;28;20479;-71
2023/01/02 06:33:28;;;;;;;5.30;4.00;;;8.60;99.90;;;;;;4986715;28;20516;-70
2023/01/02 06:35:59;;;;;;;6.60;4.40;;;8.60;99.90;;;;;;4986012;28;20495;-70
2023/01/02 06:38:25;;;;;;;10.10;4.60;;;8.60;99.90;;;;;;4986006;28;20448;-70
2023/01/02 06:40:53;;;;;;;6.90;4.57;;;8.60;99.90;;;;;;4986143;28;20467;-71
2023/01/02 06:43:22;;;;;;;9.93;3.90;;;8.60;99.90;;;;;;4986461;28;20458;-70
2023/01/02 06:45:48;;;;;;;7.10;4.30;;;8.60;99.90;;;;;;4986479;28;20463;-74
2023/01/02 06:48:16;;;;;;;6.80;4.37;;;8.60;99.90;;;;;;4986169;28;20463;-70
2023/01/02 06:50:43;;;;;;;6.10;3.93;;;8.60;99.90;;;;;;4986291;28;20475;-73
2023/01/02 06:53:10;;;;;;;8.40;4.30;;;8.60;99.90;;;;;;4985711;28;20985;-70
2023/01/02 06:55:36;;;;;;;7.27;4.30;;;8.60;99.90;;;;;;4986035;28;21051;-71
2023/01/02 06:58:03;;;;;;;13.60;5.20;;;8.50;99.90;;;;;;4985435;28;20456;-72
2023/01/02 07:00:32;;;;;;;8.10;4.67;;;8.60;99.90;;;;;;4986161;28;20447;-70
2023/01/02 07:02:58;;;;;;;6.07;4.03;;;8.50;99.90;;;;;;4986265;28;20801;-72
2023/01/02 07:05:25;;;;;;;4.70;3.60;;;8.50;99.90;;;;;;4986388;28;20482;-73
2023/01/02 07:07:52;;;;;;;5.80;3.50;;;8.50;99.90;;;;;;4985440;28;20455;-70
2023/01/02 07:10:19;;;;;;;4.90;3.30;;;8.50;99.90;;;;;;4986150;28;20460;-70
2023/01/02 07:12:46;;;;;;;6.83;3.80;;;8.40;99.90;;;;;;4985981;28;20551;-75
2023/01/02 07:15:12;;;;;;;5.63;3.33;;;8.40;99.90;;;;;;4986290;28;20841;-70
2023/01/02 07:17:40;;;;;;;6.77;4.07;;;8.40;99.90;;;;;;4984331;28;20935;-70
2023/01/02 07:20:08;;;;;;;6.20;4.20;;;8.60;99.90;;;;;;4985683;28;20974;-63
2023/01/02 07:22:35;;;;;;;13.73;4.33;;;8.60;99.90;;;;;;4985465;28;20475;-73
2023/01/02 07:25:01;;;;;;;7.93;4.30;;;8.60;99.90;;;;;;4986007;28;20466;-72
2023/01/02 07:27:29;;;;;;;4.07;3.67;;;8.50;99.90;;;;;;4985019;28;20455;-70
2023/01/02 07:29:55;;;;;;;6.43;3.70;;;8.50;99.90;;;;;;4985884;28;20455;-70
2023/01/02 07:32:22;;;;;;;9.60;3.50;;;8.30;99.90;;;;;;4985722;28;20471;-71
2023/01/02 07:34:51;;;;;;;8.10;4.03;;;8.30;99.90;;;;;;4985975;28;20470;-70
2023/01/02 07:37:18;;;;;;;4.50;3.50;;;8.20;99.90;;;;;;4983540;28;20462;-72
2023/01/02 07:39:45;;;;;;;6.70;3.70;;;8.30;99.90;;;;;;4985915;28;20443;-70
2023/01/02 07:42:12;;;;;;;5.10;3.67;;;8.30;99.90;;;;;;4985996;28;20475;-75
2023/01/02 07:44:38;;;;;;;10.00;6.07;;;8.40;99.90;;;;;;4985624;28;20975;-71
2023/01/02 07:47:05;;;;;;;7.07;4.70;;;8.40;99.90;;;;;;4984830;28;20448;-71
2023/01/02 07:49:32;;;;;;;6.17;4.10;;;8.40;99.90;;;;;;4985730;28;20450;-70
2023/01/02 07:52:00;;;;;;;4.87;4.27;;;8.40;99.90;;;;;;4985570;28;20487;-74
2023/01/02 07:54:27;;;;;;;8.37;4.43;;;8.40;99.90;;;;;;4985803;28;20464;-71
2023/01/02 07:56:54;;;;;;;8.93;4.20;;;8.40;99.90;;;;;;4984634;28;20486;-72
2023/01/02 07:59:20;;;;;;;7.33;4.53;;;8.40;99.90;;;;;;4985732;28;20459;-71
2023/01/02 08:01:47;;;;;;;6.70;4.30;;;8.40;99.90;;;;;;4985438;28;20538;-70
2023/01/02 08:04:14;;;;;;;8.13;4.43;;;8.40;99.90;;;;;;4986582;28;20455;-70
2023/01/02 08:06:41;;;;;;;8.30;4.57;;;8.40;99.90;;;;;;4987980;28;20619;-74
2023/01/02 08:09:09;;;;;;;6.27;4.03;;;8.40;99.90;;;;;;4989222;28;20458;-70
2023/01/02 08:11:36;;;;;;;4.57;3.90;;;8.40;99.90;;;;;;4989192;28;20479;-71
2023/01/02 08:14:03;;;;;;;4.53;4.10;;;8.40;99.90;;;;;;4988962;28;20869;-70
2023/01/02 08:16:30;;;;;;;5.43;4.40;;;8.40;99.90;;;;;;4988224;28;20561;-72
2023/01/02 08:18:57;;;;;;;6.30;4.10;;;8.40;99.90;;;;;;4988912;28;20462;-71
2023/01/02 08:21:25;;;;;;;8.33;3.87;;;8.50;99.90;;;;;;4988759;28;20475;-70
2023/01/02 08:23:52;;;;;;;4.80;3.57;;;8.50;99.90;;;;;;4988730;28;20540;-71
2023/01/02 08:26:22;;;;;;;7.83;4.50;;;8.50;99.90;;;;;;4988160;28;20460;-70
2023/01/02 08:28:48;;;;;;;8.07;4.87;;;8.50;99.90;;;;;;4988383;28;20457;-71
2023/01/02 08:31:17;;;;;;;6.17;4.40;;;8.60;99.90;;;;;;4988558;28;20483;-70
2023/01/02 08:33:45;;;;;;;11.90;6.60;;;8.50;99.90;;;;;;4988693;28;20455;-71
2023/01/02 08:36:13;;;;;;;8.80;4.80;;;8.60;99.90;;;;;;4987354;28;20495;-71
2023/01/02 08:38:40;;;;;;;9.27;5.50;;;8.60;99.90;;;;;;4988225;28;20956;-72
2023/01/02 08:41:07;;;;;;;8.83;6.00;;;8.60;99.90;;;;;;4988530;28;20479;-71
2023/01/02 08:43:36;;;;;;;12.83;7.00;;;8.60;99.90;;;;;;4988359;28;20443;-70
2023/01/02 08:46:04;;;;;;;12.23;5.97;;;8.70;99.90;;;;;;4987749;28;20447;-71
2023/01/02 08:48:31;;;;;;;7.50;5.50;;;8.70;99.90;;;;;;4988020;28;20464;-71
2023/01/02 08:50:58;;;;;;;10.37;6.30;;;8.70;99.90;;;;;;4988246;28;20475;-70
2023/01/02 08:53:25;;;;;;;15.47;6.60;;;8.70;99.90;;;;;;4988285;28;20456;-72
2023/01/02 08:55:51;;;;;;;9.77;6.40;;;8.60;99.90;;;;;;4987736;28;20495;-73
2023/01/02 08:58:18;;;;;;;11.20;5.60;;;8.70;99.90;;;;;;4987730;28;20463;-70
2023/01/02 09:00:46;;;;;;;9.77;6.83;;;8.70;99.90;;;;;;4987724;28;20483;-74
2023/01/02 09:03:13;;;;;;;10.05;6.18;;;8.70;99.90;;;;;;4987978;28;20452;-71
2023/01/02 09:05:40;;;;;;;9.90;6.77;;;8.80;99.90;;;;;;4987783;28;20707;-71
2023/01/02 09:08:06;;;;;;;10.50;5.90;;;8.80;99.90;;;;;;4987065;28;20456;-70
2023/01/02 09:10:33;;;;;;;10.00;6.60;;;8.90;99.90;;;;;;4987922;28;21134;-75
2023/01/02 09:13:00;;;;;;;8.47;5.60;;;8.90;99.90;;;;;;4987848;28;20447;-70
2023/01/02 09:15:27;;;;;;;30.17;14.63;;;8.90;99.90;;;;;;4986897;28;20802;-71
2023/01/02 09:17:55;;;;;;;41.40;20.67;;;9.00;99.90;;;;;;4987150;28;20464;-72
2023/01/02 09:20:22;;;;;;;28.50;13.67;;;8.90;99.90;;;;;;4987905;28;20451;-71
2023/01/02 09:22:48;;;;;;;33.43;15.93;;;9.00;99.90;;;;;;4987462;28;20466;-70
2023/01/02 09:25:15;;;;;;;29.43;13.93;;;9.00;99.90;;;;;;4987328;28;20811;-70
2023/01/02 09:27:42;;;;;;;32.70;13.97;;;9.00;99.90;;;;;;4987023;28;20909;-74
2023/01/02 09:30:09;;;;;;;39.33;17.20;;;9.10;99.90;;;;;;4987505;28;20455;-70
2023/01/02 09:32:37;;;;;;;41.80;18.50;;;9.10;99.90;;;;;;4987371;28;21078;-72
2023/01/02 09:35:06;;;;;;;26.57;14.10;;;9.10;99.90;;;;;;4987342;28;20456;-70
2023/01/02 09:37:33;;;;;;;23.00;10.67;;;9.10;99.90;;;;;;4986775;28;20495;-72
2023/01/02 09:39:59;;;;;;;19.20;10.30;;;9.10;99.90;;;;;;4987776;28;20452;-70
2023/01/02 09:42:26;;;;;;;18.90;9.50;;;9.10;99.90;;;;;;4986967;28;21178;-70
2023/01/02 09:44:57;;;;;;;16.37;7.97;;;9.30;99.90;;;;;;4986972;28;20456;-70
2023/01/02 09:47:28;;;;;;;11.17;6.17;;;9.40;99.90;;;;;;4986901;28;20440;-71
2023/01/02 09:49:57;;;;;;;12.50;6.87;;;9.50;99.90;;;;;;4987339;28;20507;-71
2023/01/02 09:52:30;;;;;;;15.60;7.07;;;9.60;99.90;;;;;;4986904;28;20529;-70
2023/01/02 09:54:57;;;;;;;11.80;6.53;;;9.60;99.90;;;;;;4987547;28;20462;-72
2023/01/02 09:57:38;;;;;;;16.93;6.80;;;9.70;99.90;;;;;;4986489;28;20491;-71
2023/01/02 10:00:14;;;;;;;12.53;5.43;;;9.80;99.90;;;;;;4987101;28;20435;-70
2023/01/02 10:02:54;;;;;;;15.83;6.20;;;9.90;99.90;;;;;;4986756;28;20486;-72
2023/01/02 10:05:37;;;;;;;6.77;5.10;;;10.00;99.90;;;;;;4987133;28;20431;-71
2023/01/02 10:08:15;;;;;;;11.60;5.20;;;10.00;99.90;;;;;;4986321;28;20456;-71
2023/01/02 10:10:44;;;;;;;8.93;5.80;;;10.10;99.90;;;;;;4986769;28;21018;-70
2023/01/02 10:13:17;;;;;;;15.03;6.53;;;10.10;99.90;;;;;;4987056;28;20459;-70
2023/01/02 10:15:46;;;;;;;14.57;9.63;;;10.20;99.90;;;;;;4986492;28;20463;-72
2023/01/02 10:18:18;;;;;;;13.47;7.20;;;10.20;99.90;;;;;;4986344;28;20455;-70
2023/01/02 10:20:57;;;;;;;10.17;7.13;;;10.30;99.90;;;;;;4986907;28;20491;-70
2023/01/02 10:23:29;;;;;;;17.93;9.57;;;10.40;99.90;;;;;;4986742;28;20443;-71
2023/01/02 10:26:02;;;;;;;14.00;9.53;;;10.40;99.90;;;;;;4986062;28;20452;-70
2023/01/02 10:28:40;;;;;;;17.10;8.27;;;10.50;99.90;;;;;;4985886;28;20473;-70
2023/01/02 10:31:14;;;;;;;17.00;7.90;;;10.60;99.90;;;;;;4987315;28;20483;-70
2023/01/02 10:33:45;;;;;;;13.60;9.10;;;10.70;99.90;;;;;;4986217;28;20812;-71
2023/01/02 10:36:22;;;;;;;9.47;6.63;;;10.90;99.90;;;;;;4984076;28;20974;-73
2023/01/02 10:38:51;;;;;;;14.40;6.40;;;11.20;99.90;;;;;;4986509;28;20450;-72
2023/01/02 10:41:19;;;;;;;9.30;5.47;;;11.30;99.90;;;;;;4986548;28;20483;-70
2023/01/02 10:43:55;;;;;;;9.80;5.70;;;11.50;99.90;;;;;;4986787;28;20462;-71
2023/01/02 10:46:23;;;;;;;7.90;5.00;;;11.70;99.90;;;;;;4985813;28;20550;-72
2023/01/02 10:48:50;;;;;;;11.03;5.10;;;11.80;99.90;;;;;;4986489;28;20828;-71
2023/01/02 10:51:17;;;;;;;13.77;5.97;;;12.00;99.90;;;;;;4985991;28;20470;-72
2023/01/02 10:54:01;;;;;;;9.00;5.67;;;12.10;99.90;;;;;;4986514;28;20454;-71
2023/01/02 10:56:31;;;;;;;19.20;6.07;;;12.20;99.90;;;;;;4985771;28;20853;-71
2023/01/02 10:58:59;;;;;;;11.50;5.53;;;12.20;99.90;;;;;;4986530;28;20487;-71
2023/01/02 11:01:26;;;;;;;6.77;4.83;;;12.50;99.90;;;;;;4986010;28;20490;-73
2023/01/02 11:04:11;;;;;;;9.57;5.47;;;12.80;99.90;;;;;;4988778;28;20451;-72
2023/01/02 11:06:49;;;;;;;9.17;5.80;;;13.00;99.90;;;;;;4965928;28;20456;-64
2023/01/02 11:09:20;;;;;;;6.70;5.13;;;13.10;99.90;;;;;;4973530;28;20444;-64
2023/01/02 11:11:52;;;;;;;11.43;5.33;;;13.40;99.90;;;;;;4985849;28;20471;-64
2023/01/02 11:14:23;;;;;;;9.93;4.87;;;13.50;99.90;;;;;;4985766;28;20467;-64
2023/01/02 11:16:51;;;;;;;8.40;5.30;;;13.90;99.90;;;;;;4982814;28;20561;-64
2023/01/02 11:19:19;;;;;;;10.30;5.43;;;14.20;99.90;;;;;;4985325;28;20479;-64
2023/01/02 11:21:47;;;;;;;12.87;5.10;;;14.40;99.90;;;;;;4985922;28;20483;-64
2023/01/02 11:24:18;;;;;;;7.83;4.17;;;14.60;99.90;;;;;;4985390;28;20834;-64
2023/01/02 11:26:49;;;;;;;12.63;5.10;;;14.70;99.90;;;;;;4985215;28;20482;-68
2023/01/02 11:29:20;;;;;;;5.60;3.83;;;14.70;99.90;;;;;;4986071;28;20451;-75
2023/01/02 11:31:50;;;;;;;5.50;3.97;;;14.70;99.90;;;;;;4985783;28;20471;-72
2023/01/02 11:34:23;;;;;;;8.53;3.67;;;14.90;99.90;;;;;;4985531;28;21292;-72
2023/01/02 11:37:05;;;;;;;5.20;3.20;;;15.20;99.90;;;;;;4985230;28;20506;-72
2023/01/02 11:39:34;;;;;;;9.00;3.70;;;15.50;99.90;;;;;;4989191;28;20456;-72
2023/01/02 11:45:06;;;;;;;6.07;3.00;;;15.90;99.90;;;;;;4989466;28;20805;-72
2023/01/02 11:47:38;;;;;;;7.77;4.13;;;16.10;99.90;;;;;;4988399;28;20583;-72
2023/01/02 11:50:05;;;;;;;11.37;3.07;;;16.00;99.90;;;;;;4989256;28;20460;-72
2023/01/02 11:52:40;;;;;;;6.93;3.33;;;15.90;99.90;;;;;;4988902;28;20529;-73
2023/01/02 11:55:17;;;;;;;7.97;3.27;;;16.00;99.90;;;;;;4989503;28;20508;-73
2023/01/02 11:57:52;;;;;;;8.57;3.37;;;15.90;99.90;;;;;;4988903;28;20483;-73
2023/01/02 12:00:21;;;;;;;11.03;4.20;;;16.40;99.90;;;;;;4989548;28;20459;-74
2023/01/02 12:02:50;;;;;;;5.90;3.33;;;16.70;99.90;;;;;;4989002;28;20989;-74
2023/01/02 12:05:25;;;;;;;9.33;4.17;;;17.00;99.90;;;;;;4989142;28;20462;-74
2023/01/02 12:08:00;;;;;;;9.40;3.70;;;17.00;99.90;;;;;;4987886;28;20450;-74
2023/01/02 12:10:46;;;;;;;5.83;3.13;;;17.00;99.90;;;;;;4988996;28;20443;-74
2023/01/02 12:13:30;;;;;;;8.80;3.40;;;17.00;99.90;;;;;;4988729;28;20455;-74
2023/01/02 12:16:18;;;;;;;7.43;4.10;;;16.90;99.90;;;;;;4988713;28;20518;-74
2023/01/02 12:19:15;;;;;;;8.07;3.20;;;17.00;99.90;;;;;;4987766;28;20491;-73
2023/01/02 12:21:47;;;;;;;10.13;3.53;;;16.90;99.90;;;;;;4988841;28;20845;-73
2023/01/02 12:24:30;;;;;;;5.50;3.10;;;16.90;99.90;;;;;;4988705;28;21007;-73
2023/01/02 12:27:04;;;;;;;7.60;3.53;;;16.90;99.90;;;;;;4987728;28;20455;-74
2023/01/02 12:29:41;;;;;;;7.13;3.20;;;16.90;99.90;;;;;;4988516;28;20443;-74
2023/01/02 12:32:39;;;;;;;8.80;3.23;;;16.80;99.90;;;;;;4988777;28;20479;-74
2023/01/02 12:35:24;;;;;;;12.87;3.97;;;16.70;99.90;;;;;;4988852;28;20448;-74
2023/01/02 12:37:54;;;;;;;6.97;2.70;;;16.60;99.90;;;;;;4987646;28;20484;-74
2023/01/02 12:40:40;;;;;;;7.80;3.30;;;16.50;99.90;;;;;;4988481;28;20482;-74
2023/01/02 12:43:24;;;;;;;12.73;3.10;;;16.40;99.90;;;;;;4988861;28;20436;-74
2023/01/02 12:46:01;;;;;;;8.50;3.10;;;16.30;99.90;;;;;;4987142;28;20959;-74
2023/01/02 12:48:44;;;;;;;7.20;3.40;;;16.40;99.90;;;;;;4987829;28;20454;-74
2023/01/02 12:51:19;;;;;;;9.83;4.00;;;16.30;99.90;;;;;;4983791;28;20475;-73
2023/01/02 12:54:19;;;;;;;8.83;2.97;;;16.20;99.90;;;;;;4986100;28;20754;-73
2023/01/02 12:56:55;;;;;;;7.33;3.00;;;16.20;99.90;;;;;;4985088;28;20463;-73
2023/01/02 12:59:48;;;;;;;7.80;2.67;;;16.20;99.90;;;;;;4988396;28;20447;-73
2023/01/02 13:02:29;;;;;;;6.30;3.20;;;16.20;99.90;;;;;;4987871;28;20852;-73
2023/01/02 13:05:02;;;;;;;8.00;3.40;;;16.20;99.90;;;;;;4988190;28;20482;-73
2023/01/02 13:07:33;;;;;;;9.00;5.20;;;16.20;99.90;;;;;;4987463;28;20456;-73
2023/01/02 13:10:03;;;;;;;8.33;5.50;;;16.20;99.90;;;;;;4988025;28;20463;-73
2023/01/02 13:12:32;;;;;;;9.13;4.83;;;16.30;99.90;;;;;;4988110;28;20499;-73
2023/01/02 13:15:02;;;;;;;5.87;3.07;;;16.30;99.90;;;;;;4987592;28;20910;-73
2023/01/02 13:17:44;;;;;;;4.83;2.80;;;16.30;99.90;;;;;;4986316;28;20499;-73
2023/01/02 13:20:20;;;;;;;10.47;2.70;;;16.30;99.90;;;;;;4987736;28;20947;-63
2023/01/02 13:22:54;;;;;;;9.47;3.00;;;16.30;99.90;;;;;;4987359;28;20542;-63
2023/01/02 13:25:21;;;;;;;8.40;3.03;;;16.30;99.90;;;;;;4987297;28;20439;-63
2023/01/02 13:27:49;;;;;;;4.97;2.83;;;16.20;99.90;;;;;;4985387;28;20456;-63
2023/01/02 13:30:42;;;;;;;7.80;2.90;;;16.20;99.90;;;;;;4987398;28;20452;-73
2023/01/02 13:33:21;;;;;;;12.10;3.03;;;16.20;99.90;;;;;;4987845;28;20459;-73
2023/01/02 13:35:49;;;;;;;8.73;2.90;;;16.20;99.90;;;;;;4987537;28;20550;-73
2023/01/02 13:38:17;;;;;;;12.40;2.60;;;16.20;99.90;;;;;;4987564;28;20502;-73
2023/01/02 13:40:46;;;;;;;6.00;2.77;;;16.10;99.90;;;;;;4987607;28;20478;-73
2023/01/02 13:43:25;;;;;;;7.33;2.70;;;16.10;99.90;;;;;;4987364;28;21221;-73
2023/01/02 13:45:54;;;;;;;9.80;2.90;;;16.10;99.90;;;;;;4987079;28;20483;-73
2023/01/02 13:48:29;;;;;;;6.80;3.10;;;16.10;99.90;;;;;;4986832;28;20582;-73
2023/01/02 13:51:01;;;;;;;6.17;2.53;;;16.00;99.90;;;;;;4987594;28;20471;-73
2023/01/02 13:53:38;;;;;;;8.60;3.30;;;16.00;99.90;;;;;;4986894;28;20931;-73
2023/01/02 13:56:08;;;;;;;5.90;3.33;;;16.00;99.90;;;;;;4987120;28;20756;-73
2023/01/02 13:58:58;;;;;;;8.90;3.37;;;16.10;99.90;;;;;;4987112;28;20496;-74
2023/01/02 14:01:55;;;;;;;7.73;2.83;;;16.00;99.90;;;;;;4986317;28;20485;-74
2023/01/02 14:04:37;;;;;;;8.47;3.30;;;16.00;99.90;;;;;;4948673;28;21062;-74
2023/01/02 14:07:55;;;;;;;9.60;4.30;;;15.90;99.90;;;;;;4985821;28;20465;-73
2023/01/02 14:10:34;;;;;;;11.43;3.77;;;15.80;99.90;;;;;;4986973;28;20482;-73
2023/01/02 14:13:11;;;;;;;10.70;3.80;;;15.80;99.90;;;;;;4986740;28;20440;-73
2023/01/02 14:16:10;;;;;;;6.80;3.37;;;15.80;99.90;;;;;;4986534;28;20445;-73
2023/01/02 14:18:38;;;;;;;11.50;3.87;;;15.70;99.90;;;;;;4973335;28;20559;-73
2023/01/02 14:21:07;;;;;;;7.70;3.20;;;15.70;99.90;;;;;;4986517;28;20464;-73
2023/01/02 14:23:40;;;;;;;11.77;3.17;;;15.70;99.90;;;;;;4986279;28;20811;-73
2023/01/02 14:26:23;;;;;;;10.43;3.03;;;15.70;99.90;;;;;;4986269;28;20456;-73
2023/01/02 14:28:51;;;;;;;6.90;3.27;;;15.70;99.90;;;;;;4986555;28;20991;-73
2023/01/02 14:31:31;;;;;;;7.70;3.03;;;15.70;99.90;;;;;;4986448;28;20840;-73
2023/01/02 14:33:58;;;;;;;11.33;3.53;;;15.70;99.90;;;;;;4986508;28;20458;-73
2023/01/02 14:36:41;;;;;;;4.93;2.80;;;15.70;99.90;;;;;;4985424;28;20974;-73
2023/01/02 14:39:17;;;;;;;8.70;3.73;;;15.60;99.90;;;;;;4986361;28;20487;-73
2023/01/02 14:45:09;;;;;;;8.63;3.80;;;15.70;99.90;;;;;;4926045;29;20975;-73
2023/01/02 14:47:38;;;;;;;8.63;4.00;;;15.60;99.90;;;;;;4925279;29;20633;-73
2023/01/02 14:50:11;;;;;;;8.63;3.73;;;15.60;99.90;;;;;;4963795;28;20464;-73
2023/01/02 14:52:44;;;;;;;10.27;4.18;;;15.50;99.90;;;;;;4985870;28;20447;-73
2023/01/02 14:55:15;;;;;;;11.17;3.67;;;15.50;99.90;;;;;;4986142;28;20747;-73
2023/01/02 14:57:47;;;;;;;12.53;3.80;;;15.50;99.90;;;;;;4985601;28;20475;-73
2023/01/02 15:00:27;;;;;;;7.07;3.53;;;15.50;99.90;;;;;;4986261;28;20439;-73
2023/01/02 15:03:06;;;;;;;9.03;3.40;;;15.50;99.90;;;;;;4986241;28;20486;-73
2023/01/02 15:05:44;;;;;;;12.33;4.80;;;15.40;99.90;;;;;;4986012;28;20451;-73
2023/01/02 15:08:17;;;;;;;9.20;4.53;;;15.40;99.90;;;;;;4985798;28;20435;-73
2023/01/02 15:13:52;;;;;;;13.80;3.93;;;15.20;99.90;;;;;;4987458;28;20448;-72
2023/01/02 15:16:20;;;;;;;13.40;3.13;;;15.20;99.90;;;;;;4989510;28;20454;-73
2023/01/02 15:18:50;;;;;;;9.97;3.30;;;15.10;99.90;;;;;;4989260;28;20495;-73
2023/01/02 15:21:22;;;;;;;6.17;2.87;;;15.00;99.90;;;;;;4989807;28;20562;-73
2023/01/02 15:23:51;;;;;;;8.20;3.87;;;15.10;99.90;;;;;;4989847;28;20819;-73
2023/01/02 15:26:24;;;;;;;8.80;3.40;;;15.00;99.90;;;;;;4989522;28;20590;-73
2023/01/02 15:28:59;;;;;;;11.47;4.10;;;15.00;99.90;;;;;;4989685;28;20471;-73
2023/01/02 15:31:26;;;;;;;11.57;4.57;;;15.00;99.90;;;;;;4989920;28;20471;-73
2023/01/02 15:33:54;;;;;;;13.60;6.10;;;14.90;99.90;;;;;;4989685;28;20455;-73
2023/01/02 15:36:32;;;;;;;12.17;5.47;;;14.90;99.90;;;;;;4989125;28;20462;-73
2023/01/02 15:39:13;;;;;;;11.40;5.30;;;14.80;99.90;;;;;;4988417;28;20506;-73
2023/01/02 15:41:46;;;;;;;15.60;5.33;;;14.70;99.90;;;;;;4989047;28;20501;-73
2023/01/02 15:47:14;;;;;;;17.77;4.77;;;14.60;99.90;;;;;;4964064;28;20522;-73
2023/01/02 15:49:43;;;;;;;15.30;5.53;;;14.50;99.90;;;;;;4989025;28;20490;-73
2023/01/02 15:52:19;;;;;;;16.40;4.67;;;14.50;99.90;;;;;;4989295;28;20474;-73
2023/01/02 15:54:48;;;;;;;9.90;4.50;;;14.40;99.90;;;;;;4989090;28;20459;-73
2023/01/02 15:57:16;;;;;;;14.33;5.30;;;14.40;99.90;;;;;;4988395;28;20466;-73
2023/01/02 15:59:45;;;;;;;16.17;4.60;;;14.40;99.90;;;;;;4987334;28;20498;-73
2023/01/02 16:02:30;;;;;;;12.33;5.30;;;14.30;99.90;;;;;;4988389;28;20762;-72
2023/01/02 16:05:10;;;;;;;11.70;4.10;;;14.30;99.90;;;;;;4987819;28;20451;-72
2023/01/02 16:07:37;;;;;;;8.43;3.30;;;14.20;99.90;;;;;;4988380;28;20462;-72
2023/01/02 16:10:08;;;;;;;6.50;2.90;;;14.20;99.90;;;;;;4988765;28;20819;-73
2023/01/02 16:12:35;;;;;;;10.83;3.37;;;14.10;99.90;;;;;;4988963;28;20478;-73
2023/01/02 16:15:03;;;;;;;11.80;3.03;;;14.10;99.90;;;;;;4988046;28;20459;-73
2023/01/02 16:17:33;;;;;;;5.00;2.67;;;14.10;99.90;;;;;;4987614;28;20463;-73
2023/01/02 16:20:02;;;;;;;10.73;2.90;;;14.10;99.90;;;;;;4988302;28;20838;-74
2023/01/02 16:22:35;;;;;;;8.73;2.53;;;14.10;99.90;;;;;;4988666;28;20475;-74
2023/01/02 16:25:12;;;;;;;6.03;2.33;;;14.10;99.90;;;;;;4986094;28;20459;-74
2023/01/02 16:27:46;;;;;;;6.47;2.47;;;14.10;99.90;;;;;;4987797;28;20444;-74
2023/01/02 16:30:28;;;;;;;4.93;2.40;;;14.20;99.90;;;;;;4987879;28;20460;-74
2023/01/02 16:32:58;;;;;;;6.70;2.43;;;14.10;99.90;;;;;;4987672;28;20438;-74
2023/01/02 16:35:28;;;;;;;6.37;2.10;;;14.10;99.90;;;;;;4987590;28;20912;-74
2023/01/02 16:37:56;;;;;;;6.93;2.67;;;14.10;99.90;;;;;;4987215;28;20456;-74
2023/01/02 16:40:47;;;;;;;9.23;2.73;;;14.10;99.90;;;;;;4988061;28;20462;-74
2023/01/02 16:43:15;;;;;;;6.10;2.40;;;14.10;99.90;;;;;;4987932;28;20459;-74
2023/01/02 16:45:42;;;;;;;7.27;2.63;;;14.10;99.90;;;;;;4987820;28;20967;-74
2023/01/02 16:48:14;;;;;;;3.70;2.20;;;14.10;99.90;;;;;;4987605;28;20458;-74
2023/01/02 16:50:43;;;;;;;5.97;2.57;;;14.00;99.90;;;;;;4987609;28;20475;-74
2023/01/02 16:53:15;;;;;;;12.10;3.20;;;14.00;99.90;;;;;;4987048;28;20979;-75
2023/01/02 16:55:43;;;;;;;10.90;3.00;;;14.00;99.90;;;;;;4988000;28;20811;-75
2023/01/02 16:58:10;;;;;;;10.80;2.80;;;14.00;99.90;;;;;;4987076;28;20500;-75
2023/01/02 17:00:37;;;;;;;5.90;2.73;;;14.00;99.90;;;;;;4986889;28;20478;-74
2023/01/02 17:03:04;;;;;;;10.93;3.07;;;14.00;99.90;;;;;;4987731;28;20906;-74
2023/01/02 17:05:36;;;;;;;8.10;3.23;;;14.00;99.90;;;;;;4987702;28;20454;-74
2023/01/02 17:08:02;;;;;;;8.00;2.80;;;14.00;99.90;;;;;;4987184;28;20459;-74
2023/01/02 17:10:29;;;;;;;7.90;3.33;;;14.00;99.90;;;;;;4987563;28;20451;-74
2023/01/02 17:12:58;;;;;;;10.10;3.37;;;14.00;99.90;;;;;;4987480;28;20462;-74
2023/01/02 17:15:24;;;;;;;10.50;3.30;;;13.90;99.90;;;;;;4987512;28;20454;-74
2023/01/02 17:17:51;;;;;;;6.83;3.30;;;13.90;99.90;;;;;;4986969;28;20960;-74
2023/01/02 17:20:18;;;;;;;5.13;2.87;;;13.90;99.90;;;;;;4987457;28;20487;-74
2023/01/02 17:22:45;;;;;;;5.73;3.30;;;13.90;99.90;;;;;;4985820;28;20462;-74
2023/01/02 17:25:14;;;;;;;6.87;3.03;;;13.80;99.90;;;;;;4987675;28;20444;-74
2023/01/02 17:27:41;;;;;;;3.50;2.00;;;13.80;99.90;;;;;;4987038;28;20538;-74
2023/01/02 17:30:11;;;;;;;7.07;3.10;;;13.70;99.90;;;;;;4987118;28;20822;-74
2023/01/02 17:32:38;;;;;;;6.83;2.50;;;13.70;99.90;;;;;;4987321;28;20476;-74
2023/01/02 17:35:05;;;;;;;6.70;3.00;;;13.70;99.90;;;;;;4986929;28;20455;-74
2023/01/02 17:37:32;;;;;;;4.90;2.80;;;13.60;99.90;;;;;;4985949;28;20944;-74
2023/01/02 17:39:59;;;;;;;9.20;2.57;;;13.60;99.90;;;;;;4987181;28;20499;-74
2023/01/02 17:42:26;;;;;;;5.40;2.80;;;13.60;99.90;;;;;;4986697;28;20475;-74
2023/01/02 17:44:53;;;;;;;6.20;2.67;;;13.50;99.90;;;;;;4987049;28;20754;-74
2023/01/02 17:47:21;;;;;;;7.80;3.40;;;13.50;99.90;;;;;;4986898;28;20455;-74
2023/01/02 17:49:48;;;;;;;6.00;3.20;;;13.50;99.90;;;;;;4987392;28;20458;-74
2023/01/02 17:52:15;;;;;;;7.83;3.53;;;13.50;99.90;;;;;;4986686;28;20571;-74
2023/01/02 17:54:42;;;;;;;7.80;3.03;;;13.40;99.90;;;;;;4986913;28;20455;-74
2023/01/02 17:57:10;;;;;;;8.47;3.30;;;13.40;99.90;;;;;;4986537;28;20547;-74
2023/01/02 17:59:37;;;;;;;6.20;3.13;;;13.40;99.90;;;;;;4986613;28;20499;-74
2023/01/02 18:02:05;;;;;;;6.23;3.07;;;13.40;99.90;;;;;;4986640;28;20483;-74
2023/01/02 18:04:33;;;;;;;4.37;2.30;;;13.40;99.90;;;;;;4986322;28;21008;-74
2023/01/02 18:07:01;;;;;;;6.60;2.90;;;13.30;99.90;;;;;;4986553;28;20734;-74
2023/01/02 18:09:28;;;;;;;6.53;3.50;;;13.30;99.90;;;;;;4986970;28;20439;-74
2023/01/02 18:11:55;;;;;;;6.30;3.20;;;13.20;99.90;;;;;;4986478;28;20483;-74
2023/01/02 18:14:24;;;;;;;6.23;3.00;;;13.20;99.90;;;;;;4986013;28;20459;-74
2023/01/02 18:16:55;;;;;;;5.60;3.10;;;13.20;99.90;;;;;;4986192;28;20455;-74
2023/01/02 18:19:24;;;;;;;6.00;2.90;;;13.00;99.90;;;;;;4986076;28;21010;-74
2023/01/02 18:21:52;;;;;;;5.20;2.70;;;12.80;99.90;;;;;;4985199;28;20471;-74